sensor_id;sensor_type;location;lat;lon;timestamp;P1;durP1;ratioP1;P2;durP2;ratioP2
20802;SDS011;10562;-33.856;151.182;2024-02-23T00:01:06;9.52;;;3.30;;
20802;SDS011;10562;-33.856;151.182;2024-02-23T00:03:38;6.72;;;2.58;;
20802;SDS011;10562;-33.856;151.182;2024-02-23T00:06:09;10.73;;;3.00;;
20802;SDS011;10562;-33.856;151.182;2024-02-23T00:08:41;9.73;;;3.10;;
20802;SDS011;10562;-33.856;151.182;2024-02-23T00:11:12;6.22;;;2.85;;
20802;SDS011;10562;-33.856;151.182;2024-02-23T00:13:42;6.28;;;2.70;;
20802;SDS011;10562;-33.856;151.182;2024-02-23T00:16:16;8.88;;;2.55;;
20802;SDS011;10562;-33.856;151.182;2024-02-23T00:18:46;5.88;;;2.60;;
20802;SDS011;10562;-33.856;151.182;2024-02-23T00:21:17;6.22;;;2.50;;
20802;SDS011;10562;-33.856;151.182;2024-02-23T00:23:48;6.82;;;2.50;;
20802;SDS011;10562;-33.856;151.182;2024-02-23T00:26:18;6.78;;;2.53;;
20802;SDS011;10562;-33.856;151.182;2024-02-23T00:28:49;7.13;;;2.53;;
20802;SDS011;10562;-33.856;151.182;2024-02-23T00:31:22;4.53;;;2.20;;
20802;SDS011;10562;-33.856;151.182;2024-02-23T00:33:53;3.92;;;2.10;;
20802;SDS011;10562;-33.856;151.182;2024-02-23T00:36:23;8.70;;;2.30;;
20802;SDS011;10562;-33.856;151.182;2024-02-23T00:38:54;6.32;;;2.50;;
20802;SDS011;10562;-33.856;151.182;2024-02-23T00:41:25;4.22;;;2.35;;
20802;SDS011;10562;-33.856;151.182;2024-02-23T00:43:56;6.43;;;2.33;;
20802;SDS011;10562;-33.856;151.182;2024-02-23T00:46:28;7.90;;;2.10;;
20802;SDS011;10562;-33.856;151.182;2024-02-23T00:49:00;7.38;;;2.35;;
20802;SDS011;10562;-33.856;151.182;2024-02-23T00:51:30;4.38;;;2.03;;
20802;SDS011;10562;-33.856;151.182;2024-02-23T00:54:01;6.65;;;2.17;;
20802;SDS011;10562;-33.856;151.182;2024-02-23T00:56:34;3.88;;;1.70;;
20802;SDS011;10562;-33.856;151.182;2024-02-23T00:59:05;5.03;;;2.13;;
20802;SDS011;10562;-33.856;151.182;2024-02-23T01:01:37;6.53;;;2.10;;
20802;SDS011;10562;-33.856;151.182;2024-02-23T01:04:08;3.65;;;1.98;;
20802;SDS011;10562;-33.856;151.182;2024-02-23T01:06:39;4.07;;;1.90;;
20802;SDS011;10562;-33.856;151.182;2024-02-23T01:09:09;6.28;;;2.15;;
20802;SDS011;10562;-33.856;151.182;2024-02-23T01:11:42;6.63;;;2.10;;
20802;SDS011;10562;-33.856;151.182;2024-02-23T01:14:13;4.65;;;1.85;;
20802;SDS011;10562;-33.856;151.182;2024-02-23T01:16:46;2.95;;;1.90;;
20802;SDS011;10562;-33.856;151.182;2024-02-23T01:19:17;5.25;;;1.95;;
20802;SDS011;10562;-33.856;151.182;2024-02-23T01:21:48;3.00;;;1.80;;
20802;SDS011;10562;-33.856;151.182;2024-02-23T01:24:25;4.03;;;1.50;;
20802;SDS011;10562;-33.856;151.182;2024-02-23T01:26:56;5.22;;;1.42;;
20802;SDS011;10562;-33.856;151.182;2024-02-23T01:29:27;2.72;;;1.42;;
20802;SDS011;10562;-33.856;151.182;2024-02-23T01:32:00;5.25;;;1.40;;
20802;SDS011;10562;-33.856;151.182;2024-02-23T01:34:31;2.58;;;1.38;;
20802;SDS011;10562;-33.856;151.182;2024-02-23T01:37:02;2.83;;;1.25;;
20802;SDS011;10562;-33.856;151.182;2024-02-23T01:39:33;2.58;;;1.23;;
20802;SDS011;10562;-33.856;151.182;2024-02-23T01:42:03;2.28;;;1.15;;
20802;SDS011;10562;-33.856;151.182;2024-02-23T01:44:34;2.60;;;1.10;;
20802;SDS011;10562;-33.856;151.182;2024-02-23T01:47:07;3.50;;;1.10;;
20802;SDS011;10562;-33.856;151.182;2024-02-23T01:49:38;3.35;;;1.05;;
20802;SDS011;10562;-33.856;151.182;2024-02-23T01:52:09;6.82;;;1.20;;
20802;SDS011;10562;-33.856;151.182;2024-02-23T01:54:41;3.25;;;1.10;;
20802;SDS011;10562;-33.856;151.182;2024-02-23T01:57:12;1.45;;;0.95;;
20802;SDS011;10562;-33.856;151.182;2024-02-23T01:59:43;2.13;;;0.90;;
20802;SDS011;10562;-33.856;151.182;2024-02-23T02:02:16;3.58;;;1.10;;
20802;SDS011;10562;-33.856;151.182;2024-02-23T02:04:47;1.83;;;1.05;;
20802;SDS011;10562;-33.856;151.182;2024-02-23T02:07:18;2.42;;;0.95;;
20802;SDS011;10562;-33.856;151.182;2024-02-23T02:09:51;3.10;;;1.00;;
20802;SDS011;10562;-33.856;151.182;2024-02-23T02:12:28;1.17;;;0.90;;
20802;SDS011;10562;-33.856;151.182;2024-02-23T02:14:58;3.08;;;1.10;;
20802;SDS011;10562;-33.856;151.182;2024-02-23T02:17:31;3.75;;;1.30;;
20802;SDS011;10562;-33.856;151.182;2024-02-23T02:20:02;4.50;;;1.10;;
20802;SDS011;10562;-33.856;151.182;2024-02-23T02:22:34;3.20;;;1.05;;
20802;SDS011;10562;-33.856;151.182;2024-02-23T02:25:06;2.15;;;1.00;;
20802;SDS011;10562;-33.856;151.182;2024-02-23T02:27:37;2.35;;;0.88;;
20802;SDS011;10562;-33.856;151.182;2024-02-23T02:30:08;1.83;;;0.90;;
20802;SDS011;10562;-33.856;151.182;2024-02-23T02:32:41;6.65;;;0.90;;
20802;SDS011;10562;-33.856;151.182;2024-02-23T02:35:12;2.85;;;0.95;;
20802;SDS011;10562;-33.856;151.182;2024-02-23T02:37:43;1.30;;;0.80;;
20802;SDS011;10562;-33.856;151.182;2024-02-23T02:40:14;1.95;;;1.00;;
20802;SDS011;10562;-33.856;151.182;2024-02-23T02:42:48;2.28;;;0.98;;
20802;SDS011;10562;-33.856;151.182;2024-02-23T02:45:19;2.35;;;1.00;;
20802;SDS011;10562;-33.856;151.182;2024-02-23T02:47:52;1.85;;;0.98;;
20802;SDS011;10562;-33.856;151.182;2024-02-23T02:50:23;2.35;;;1.05;;
20802;SDS011;10562;-33.856;151.182;2024-02-23T02:52:58;2.60;;;1.10;;
20802;SDS011;10562;-33.856;151.182;2024-02-23T02:55:28;2.38;;;1.10;;
20802;SDS011;10562;-33.856;151.182;2024-02-23T02:58:00;2.85;;;0.93;;
20802;SDS011;10562;-33.856;151.182;2024-02-23T03:00:31;2.30;;;0.90;;
20802;SDS011;10562;-33.856;151.182;2024-02-23T03:03:03;3.28;;;1.10;;
20802;SDS011;10562;-33.856;151.182;2024-02-23T03:05:34;2.15;;;0.95;;
20802;SDS011;10562;-33.856;151.182;2024-02-23T03:08:07;4.40;;;1.10;;
20802;SDS011;10562;-33.856;151.182;2024-02-23T03:10:40;4.20;;;0.77;;
20802;SDS011;10562;-33.856;151.182;2024-02-23T03:13:11;3.33;;;0.93;;
20802;SDS011;10562;-33.856;151.182;2024-02-23T03:15:42;4.18;;;0.90;;
20802;SDS011;10562;-33.856;151.182;2024-02-23T03:18:15;3.08;;;0.90;;
20802;SDS011;10562;-33.856;151.182;2024-02-23T03:20:45;5.38;;;0.80;;
20802;SDS011;10562;-33.856;151.182;2024-02-23T03:23:16;1.65;;;0.82;;
20802;SDS011;10562;-33.856;151.182;2024-02-23T03:25:47;3.83;;;0.90;;
20802;SDS011;10562;-33.856;151.182;2024-02-23T03:28:18;1.92;;;0.80;;
20802;SDS011;10562;-33.856;151.182;2024-02-23T03:30:49;2.28;;;0.90;;
20802;SDS011;10562;-33.856;151.182;2024-02-23T03:33:21;2.38;;;0.95;;
20802;SDS011;10562;-33.856;151.182;2024-02-23T03:35:52;1.58;;;0.88;;
20802;SDS011;10562;-33.856;151.182;2024-02-23T03:38:23;2.10;;;0.60;;
20802;SDS011;10562;-33.856;151.182;2024-02-23T03:40:55;2.10;;;0.70;;
20802;SDS011;10562;-33.856;151.182;2024-02-23T03:43:26;1.80;;;0.80;;
20802;SDS011;10562;-33.856;151.182;2024-02-23T03:45:56;3.85;;;0.90;;
20802;SDS011;10562;-33.856;151.182;2024-02-23T03:48:29;3.80;;;0.70;;
20802;SDS011;10562;-33.856;151.182;2024-02-23T03:51:08;2.65;;;0.68;;
20802;SDS011;10562;-33.856;151.182;2024-02-23T03:53:39;4.10;;;0.88;;
20802;SDS011;10562;-33.856;151.182;2024-02-23T03:56:11;1.85;;;0.70;;
20802;SDS011;10562;-33.856;151.182;2024-02-23T03:58:41;3.92;;;0.70;;
20802;SDS011;10562;-33.856;151.182;2024-02-23T04:01:12;3.20;;;0.80;;
20802;SDS011;10562;-33.856;151.182;2024-02-23T04:03:45;1.50;;;0.77;;
20802;SDS011;10562;-33.856;151.182;2024-02-23T04:06:15;2.40;;;0.63;;
20802;SDS011;10562;-33.856;151.182;2024-02-23T04:08:46;2.70;;;0.60;;
20802;SDS011;10562;-33.856;151.182;2024-02-23T04:11:17;6.20;;;1.00;;
20802;SDS011;10562;-33.856;151.182;2024-02-23T04:13:48;4.63;;;0.90;;
20802;SDS011;10562;-33.856;151.182;2024-02-23T04:16:22;2.88;;;0.63;;
20802;SDS011;10562;-33.856;151.182;2024-02-23T04:18:55;2.40;;;1.00;;
20802;SDS011;10562;-33.856;151.182;2024-02-23T04:21:26;3.92;;;0.90;;
20802;SDS011;10562;-33.856;151.182;2024-02-23T04:23:57;2.15;;;0.95;;
20802;SDS011;10562;-33.856;151.182;2024-02-23T04:26:27;2.83;;;1.10;;
20802;SDS011;10562;-33.856;151.182;2024-02-23T04:28:58;2.22;;;0.98;;
20802;SDS011;10562;-33.856;151.182;2024-02-23T04:31:29;1.98;;;0.85;;
20802;SDS011;10562;-33.856;151.182;2024-02-23T04:34:02;4.72;;;0.80;;
20802;SDS011;10562;-33.856;151.182;2024-02-23T04:36:33;1.33;;;0.60;;
20802;SDS011;10562;-33.856;151.182;2024-02-23T04:39:03;1.60;;;0.90;;
20802;SDS011;10562;-33.856;151.182;2024-02-23T04:41:34;2.67;;;0.80;;
20802;SDS011;10562;-33.856;151.182;2024-02-23T04:44:05;2.58;;;0.80;;
20802;SDS011;10562;-33.856;151.182;2024-02-23T04:46:36;2.17;;;0.80;;
20802;SDS011;10562;-33.856;151.182;2024-02-23T04:49:09;3.65;;;0.68;;
20802;SDS011;10562;-33.856;151.182;2024-02-23T04:51:40;2.92;;;0.80;;
20802;SDS011;10562;-33.856;151.182;2024-02-23T04:54:11;3.03;;;0.70;;
20802;SDS011;10562;-33.856;151.182;2024-02-23T04:56:42;3.13;;;0.80;;
20802;SDS011;10562;-33.856;151.182;2024-02-23T04:59:13;2.63;;;0.80;;
20802;SDS011;10562;-33.856;151.182;2024-02-23T05:01:44;2.42;;;0.70;;
20802;SDS011;10562;-33.856;151.182;2024-02-23T05:07:03;2.50;;;0.60;;
20802;SDS011;10562;-33.856;151.182;2024-02-23T05:09:34;2.67;;;0.60;;
20802;SDS011;10562;-33.856;151.182;2024-02-23T05:12:07;2.33;;;0.75;;
20802;SDS011;10562;-33.856;151.182;2024-02-23T05:14:38;2.40;;;0.47;;
20802;SDS011;10562;-33.856;151.182;2024-02-23T05:17:08;2.03;;;0.57;;
20802;SDS011;10562;-33.856;151.182;2024-02-23T05:19:41;1.40;;;0.60;;
20802;SDS011;10562;-33.856;151.182;2024-02-23T05:22:12;6.72;;;0.50;;
20802;SDS011;10562;-33.856;151.182;2024-02-23T05:24:43;2.05;;;0.80;;
20802;SDS011;10562;-33.856;151.182;2024-02-23T05:27:14;5.40;;;0.73;;
20802;SDS011;10562;-33.856;151.182;2024-02-23T05:29:44;4.75;;;0.70;;
20802;SDS011;10562;-33.856;151.182;2024-02-23T05:32:15;1.95;;;0.70;;
20802;SDS011;10562;-33.856;151.182;2024-02-23T05:34:48;2.88;;;0.88;;
20802;SDS011;10562;-33.856;151.182;2024-02-23T05:37:20;29.52;;;2.53;;
20802;SDS011;10562;-33.856;151.182;2024-02-23T05:39:51;20.77;;;2.50;;
20802;SDS011;10562;-33.856;151.182;2024-02-23T05:42:22;14.32;;;2.40;;
20802;SDS011;10562;-33.856;151.182;2024-02-23T05:44:52;14.40;;;2.25;;
20802;SDS011;10562;-33.856;151.182;2024-02-23T05:47:24;21.73;;;2.00;;
20802;SDS011;10562;-33.856;151.182;2024-02-23T05:49:57;8.60;;;1.55;;
20802;SDS011;10562;-33.856;151.182;2024-02-23T05:52:28;16.40;;;2.40;;
20802;SDS011;10562;-33.856;151.182;2024-02-23T05:55:00;19.15;;;2.38;;
20802;SDS011;10562;-33.856;151.182;2024-02-23T05:57:31;20.13;;;2.72;;
20802;SDS011;10562;-33.856;151.182;2024-02-23T06:00:02;10.98;;;2.22;;
20802;SDS011;10562;-33.856;151.182;2024-02-23T06:02:33;8.52;;;2.45;;
20802;SDS011;10562;-33.856;151.182;2024-02-23T06:05:07;13.55;;;2.60;;
20802;SDS011;10562;-33.856;151.182;2024-02-23T06:07:37;14.15;;;2.80;;
20802;SDS011;10562;-33.856;151.182;2024-02-23T06:10:08;15.75;;;3.17;;
20802;SDS011;10562;-33.856;151.182;2024-02-23T06:12:39;16.52;;;2.85;;
20802;SDS011;10562;-33.856;151.182;2024-02-23T06:15:10;16.15;;;3.17;;
20802;SDS011;10562;-33.856;151.182;2024-02-23T06:17:41;14.63;;;2.92;;
20802;SDS011;10562;-33.856;151.182;2024-02-23T06:20:14;12.57;;;2.72;;
20802;SDS011;10562;-33.856;151.182;2024-02-23T06:22:46;16.92;;;3.17;;
20802;SDS011;10562;-33.856;151.182;2024-02-23T06:25:16;19.48;;;3.35;;
20802;SDS011;10562;-33.856;151.182;2024-02-23T06:27:47;20.73;;;3.85;;
20802;SDS011;10562;-33.856;151.182;2024-02-23T06:30:18;20.17;;;4.00;;
20802;SDS011;10562;-33.856;151.182;2024-02-23T06:32:49;17.38;;;3.13;;
20802;SDS011;10562;-33.856;151.182;2024-02-23T06:35:21;15.98;;;3.58;;
20802;SDS011;10562;-33.856;151.182;2024-02-23T06:37:52;21.58;;;3.75;;
20802;SDS011;10562;-33.856;151.182;2024-02-23T06:40:23;18.77;;;3.80;;
20802;SDS011;10562;-33.856;151.182;2024-02-23T06:42:54;23.15;;;4.68;;
20802;SDS011;10562;-33.856;151.182;2024-02-23T06:45:24;20.02;;;3.88;;
20802;SDS011;10562;-33.856;151.182;2024-02-23T06:47:56;20.13;;;4.07;;
20802;SDS011;10562;-33.856;151.182;2024-02-23T06:50:28;30.35;;;4.30;;
20802;SDS011;10562;-33.856;151.182;2024-02-23T06:52:59;29.20;;;4.40;;
20802;SDS011;10562;-33.856;151.182;2024-02-23T06:55:31;31.63;;;4.65;;
20802;SDS011;10562;-33.856;151.182;2024-02-23T06:58:02;28.13;;;4.05;;
20802;SDS011;10562;-33.856;151.182;2024-02-23T07:00:33;29.20;;;4.57;;
20802;SDS011;10562;-33.856;151.182;2024-02-23T07:03:04;36.42;;;5.45;;
20802;SDS011;10562;-33.856;151.182;2024-02-23T07:05:37;30.50;;;5.05;;
20802;SDS011;10562;-33.856;151.182;2024-02-23T07:08:08;25.13;;;5.03;;
20802;SDS011;10562;-33.856;151.182;2024-02-23T07:10:39;25.27;;;4.72;;
20802;SDS011;10562;-33.856;151.182;2024-02-23T07:13:12;34.47;;;5.10;;
20802;SDS011;10562;-33.856;151.182;2024-02-23T07:15:43;30.55;;;5.65;;
20802;SDS011;10562;-33.856;151.182;2024-02-23T07:18:14;22.63;;;5.10;;
20802;SDS011;10562;-33.856;151.182;2024-02-23T07:20:47;21.27;;;4.60;;
20802;SDS011;10562;-33.856;151.182;2024-02-23T07:23:18;24.08;;;4.32;;
20802;SDS011;10562;-33.856;151.182;2024-02-23T07:25:49;18.05;;;3.63;;
20802;SDS011;10562;-33.856;151.182;2024-02-23T07:28:21;14.32;;;4.00;;
20802;SDS011;10562;-33.856;151.182;2024-02-23T07:30:52;15.80;;;4.15;;
20802;SDS011;10562;-33.856;151.182;2024-02-23T07:33:27;19.52;;;4.05;;
20802;SDS011;10562;-33.856;151.182;2024-02-23T07:36:01;17.50;;;3.92;;
20802;SDS011;10562;-33.856;151.182;2024-02-23T07:38:32;19.40;;;4.13;;
20802;SDS011;10562;-33.856;151.182;2024-02-23T07:41:03;24.25;;;4.60;;
20802;SDS011;10562;-33.856;151.182;2024-02-23T07:43:34;15.95;;;4.22;;
20802;SDS011;10562;-33.856;151.182;2024-02-23T07:46:05;16.80;;;4.75;;
20802;SDS011;10562;-33.856;151.182;2024-02-23T07:48:37;18.55;;;4.82;;
20802;SDS011;10562;-33.856;151.182;2024-02-23T07:51:13;15.43;;;4.43;;
20802;SDS011;10562;-33.856;151.182;2024-02-23T07:53:46;15.88;;;4.35;;
20802;SDS011;10562;-33.856;151.182;2024-02-23T07:56:28;13.60;;;3.83;;
20802;SDS011;10562;-33.856;151.182;2024-02-23T07:59:00;12.63;;;3.75;;
20802;SDS011;10562;-33.856;151.182;2024-02-23T08:01:32;12.50;;;3.83;;
20802;SDS011;10562;-33.856;151.182;2024-02-23T08:04:03;17.25;;;4.10;;
20802;SDS011;10562;-33.856;151.182;2024-02-23T08:06:36;16.65;;;3.85;;
20802;SDS011;10562;-33.856;151.182;2024-02-23T08:09:07;13.07;;;3.85;;
20802;SDS011;10562;-33.856;151.182;2024-02-23T08:11:39;19.65;;;4.32;;
20802;SDS011;10562;-33.856;151.182;2024-02-23T08:14:12;18.50;;;4.50;;
20802;SDS011;10562;-33.856;151.182;2024-02-23T08:16:43;18.17;;;4.95;;
20802;SDS011;10562;-33.856;151.182;2024-02-23T08:19:14;20.75;;;4.80;;
20802;SDS011;10562;-33.856;151.182;2024-02-23T08:21:47;13.90;;;4.15;;
20802;SDS011;10562;-33.856;151.182;2024-02-23T08:24:17;17.65;;;4.43;;
20802;SDS011;10562;-33.856;151.182;2024-02-23T08:26:48;19.35;;;4.20;;
20802;SDS011;10562;-33.856;151.182;2024-02-23T08:29:19;17.88;;;4.35;;
20802;SDS011;10562;-33.856;151.182;2024-02-23T08:31:50;17.70;;;4.22;;
20802;SDS011;10562;-33.856;151.182;2024-02-23T08:34:21;21.90;;;4.75;;
20802;SDS011;10562;-33.856;151.182;2024-02-23T08:36:54;20.70;;;5.70;;
20802;SDS011;10562;-33.856;151.182;2024-02-23T08:39:25;24.85;;;7.75;;
20802;SDS011;10562;-33.856;151.182;2024-02-23T08:41:55;35.65;;;9.98;;
20802;SDS011;10562;-33.856;151.182;2024-02-23T08:44:26;30.55;;;11.73;;
20802;SDS011;10562;-33.856;151.182;2024-02-23T08:46:57;22.05;;;7.93;;
20802;SDS011;10562;-33.856;151.182;2024-02-23T08:49:28;21.38;;;8.30;;
20802;SDS011;10562;-33.856;151.182;2024-02-23T08:52:00;24.02;;;7.13;;
20802;SDS011;10562;-33.856;151.182;2024-02-23T08:54:31;32.58;;;7.18;;
20802;SDS011;10562;-33.856;151.182;2024-02-23T08:57:03;32.70;;;7.07;;
20802;SDS011;10562;-33.856;151.182;2024-02-23T08:59:34;29.65;;;7.20;;
20802;SDS011;10562;-33.856;151.182;2024-02-23T09:02:05;40.08;;;9.48;;
20802;SDS011;10562;-33.856;151.182;2024-02-23T09:04:36;40.30;;;7.82;;
20802;SDS011;10562;-33.856;151.182;2024-02-23T09:07:09;29.83;;;5.70;;
20802;SDS011;10562;-33.856;151.182;2024-02-23T09:09:40;26.15;;;5.43;;
20802;SDS011;10562;-33.856;151.182;2024-02-23T09:12:10;29.45;;;6.03;;
20802;SDS011;10562;-33.856;151.182;2024-02-23T09:14:42;33.78;;;6.68;;
20802;SDS011;10562;-33.856;151.182;2024-02-23T09:17:13;29.42;;;7.60;;
20802;SDS011;10562;-33.856;151.182;2024-02-23T09:19:45;37.83;;;6.07;;
20802;SDS011;10562;-33.856;151.182;2024-02-23T09:22:17;27.17;;;5.32;;
20802;SDS011;10562;-33.856;151.182;2024-02-23T09:24:48;26.00;;;5.18;;
20802;SDS011;10562;-33.856;151.182;2024-02-23T09:27:20;36.40;;;5.68;;
20802;SDS011;10562;-33.856;151.182;2024-02-23T09:29:51;23.35;;;5.13;;
20802;SDS011;10562;-33.856;151.182;2024-02-23T09:32:22;26.23;;;5.18;;
20802;SDS011;10562;-33.856;151.182;2024-02-23T09:34:53;31.08;;;5.80;;
20802;SDS011;10562;-33.856;151.182;2024-02-23T09:37:26;25.90;;;5.13;;
20802;SDS011;10562;-33.856;151.182;2024-02-23T09:39:57;26.42;;;5.15;;
20802;SDS011;10562;-33.856;151.182;2024-02-23T09:42:28;23.10;;;4.70;;
20802;SDS011;10562;-33.856;151.182;2024-02-23T09:45:00;26.20;;;4.70;;
20802;SDS011;10562;-33.856;151.182;2024-02-23T09:47:31;34.30;;;8.15;;
20802;SDS011;10562;-33.856;151.182;2024-02-23T09:50:03;30.48;;;6.43;;
20802;SDS011;10562;-33.856;151.182;2024-02-23T09:52:36;35.25;;;7.68;;
20802;SDS011;10562;-33.856;151.182;2024-02-23T09:55:07;24.52;;;6.20;;
20802;SDS011;10562;-33.856;151.182;2024-02-23T09:57:38;26.52;;;6.32;;
20802;SDS011;10562;-33.856;151.182;2024-02-23T10:00:11;20.77;;;5.38;;
20802;SDS011;10562;-33.856;151.182;2024-02-23T10:02:44;43.13;;;18.45;;
20802;SDS011;10562;-33.856;151.182;2024-02-23T10:05:15;33.15;;;10.95;;
20802;SDS011;10562;-33.856;151.182;2024-02-23T10:07:48;70.72;;;35.38;;
20802;SDS011;10562;-33.856;151.182;2024-02-23T10:10:24;59.05;;;22.58;;
20802;SDS011;10562;-33.856;151.182;2024-02-23T10:12:59;47.22;;;12.20;;
20802;SDS011;10562;-33.856;151.182;2024-02-23T10:15:31;41.55;;;11.90;;
20802;SDS011;10562;-33.856;151.182;2024-02-23T10:18:02;35.72;;;8.43;;
20802;SDS011;10562;-33.856;151.182;2024-02-23T10:20:33;31.70;;;7.00;;
20802;SDS011;10562;-33.856;151.182;2024-02-23T10:23:07;27.33;;;6.63;;
20802;SDS011;10562;-33.856;151.182;2024-02-23T10:25:38;33.55;;;5.85;;
20802;SDS011;10562;-33.856;151.182;2024-02-23T10:28:09;33.03;;;6.65;;
20802;SDS011;10562;-33.856;151.182;2024-02-23T10:30:40;39.08;;;5.88;;
20802;SDS011;10562;-33.856;151.182;2024-02-23T10:33:11;27.58;;;5.30;;
20802;SDS011;10562;-33.856;151.182;2024-02-23T10:35:43;30.30;;;5.22;;
20802;SDS011;10562;-33.856;151.182;2024-02-23T10:38:17;30.95;;;5.25;;
20802;SDS011;10562;-33.856;151.182;2024-02-23T10:40:49;31.55;;;5.18;;
20802;SDS011;10562;-33.856;151.182;2024-02-23T10:43:25;23.65;;;5.40;;
20802;SDS011;10562;-33.856;151.182;2024-02-23T10:46:02;31.02;;;5.80;;
20802;SDS011;10562;-33.856;151.182;2024-02-23T10:48:39;28.80;;;6.00;;
20802;SDS011;10562;-33.856;151.182;2024-02-23T10:51:13;31.13;;;6.00;;
20802;SDS011;10562;-33.856;151.182;2024-02-23T10:53:47;33.10;;;6.30;;
20802;SDS011;10562;-33.856;151.182;2024-02-23T10:56:20;37.00;;;7.38;;
20802;SDS011;10562;-33.856;151.182;2024-02-23T10:58:52;39.03;;;6.78;;
20802;SDS011;10562;-33.856;151.182;2024-02-23T11:01:22;33.85;;;6.53;;
20802;SDS011;10562;-33.856;151.182;2024-02-23T11:03:54;41.22;;;6.25;;
20802;SDS011;10562;-33.856;151.182;2024-02-23T11:06:27;32.17;;;5.90;;
20802;SDS011;10562;-33.856;151.182;2024-02-23T11:09:12;29.50;;;5.82;;
20802;SDS011;10562;-33.856;151.182;2024-02-23T11:11:51;35.55;;;6.20;;
20802;SDS011;10562;-33.856;151.182;2024-02-23T11:14:32;30.55;;;6.55;;
20802;SDS011;10562;-33.856;151.182;2024-02-23T11:17:05;32.88;;;6.75;;
20802;SDS011;10562;-33.856;151.182;2024-02-23T11:19:48;38.58;;;7.47;;
20802;SDS011;10562;-33.856;151.182;2024-02-23T11:22:24;43.22;;;7.22;;
20802;SDS011;10562;-33.856;151.182;2024-02-23T11:25:01;39.10;;;7.13;;
20802;SDS011;10562;-33.856;151.182;2024-02-23T11:27:34;39.05;;;6.75;;
20802;SDS011;10562;-33.856;151.182;2024-02-23T11:30:06;48.38;;;7.43;;
20802;SDS011;10562;-33.856;151.182;2024-02-23T11:32:40;43.13;;;7.05;;
20802;SDS011;10562;-33.856;151.182;2024-02-23T11:35:13;39.83;;;8.10;;
20802;SDS011;10562;-33.856;151.182;2024-02-23T11:37:48;44.63;;;7.60;;
20802;SDS011;10562;-33.856;151.182;2024-02-23T11:40:33;44.25;;;7.85;;
20802;SDS011;10562;-33.856;151.182;2024-02-23T11:43:05;43.65;;;8.35;;
20802;SDS011;10562;-33.856;151.182;2024-02-23T11:45:37;41.92;;;7.43;;
20802;SDS011;10562;-33.856;151.182;2024-02-23T11:48:09;46.55;;;8.02;;
20802;SDS011;10562;-33.856;151.182;2024-02-23T11:50:40;56.03;;;8.68;;
20802;SDS011;10562;-33.856;151.182;2024-02-23T11:53:11;39.25;;;7.68;;
20802;SDS011;10562;-33.856;151.182;2024-02-23T11:55:45;48.10;;;8.13;;
20802;SDS011;10562;-33.856;151.182;2024-02-23T11:58:16;56.45;;;8.55;;
20802;SDS011;10562;-33.856;151.182;2024-02-23T12:00:46;48.60;;;8.48;;
20802;SDS011;10562;-33.856;151.182;2024-02-23T12:03:19;50.20;;;8.00;;
20802;SDS011;10562;-33.856;151.182;2024-02-23T12:05:51;43.40;;;7.00;;
20802;SDS011;10562;-33.856;151.182;2024-02-23T12:08:22;55.47;;;8.80;;
20802;SDS011;10562;-33.856;151.182;2024-02-23T12:10:56;41.05;;;7.60;;
20802;SDS011;10562;-33.856;151.182;2024-02-23T12:13:27;42.05;;;7.97;;
20802;SDS011;10562;-33.856;151.182;2024-02-23T12:15:59;40.95;;;7.88;;
20802;SDS011;10562;-33.856;151.182;2024-02-23T12:18:30;34.92;;;7.22;;
20802;SDS011;10562;-33.856;151.182;2024-02-23T12:21:04;32.25;;;6.93;;
20802;SDS011;10562;-33.856;151.182;2024-02-23T12:23:42;38.10;;;7.28;;
20802;SDS011;10562;-33.856;151.182;2024-02-23T12:26:16;35.47;;;8.45;;
20802;SDS011;10562;-33.856;151.182;2024-02-23T12:28:47;39.95;;;7.97;;
20802;SDS011;10562;-33.856;151.182;2024-02-23T12:31:23;39.88;;;8.45;;
20802;SDS011;10562;-33.856;151.182;2024-02-23T12:33:54;32.97;;;7.50;;
20802;SDS011;10562;-33.856;151.182;2024-02-23T12:36:27;36.63;;;7.20;;
20802;SDS011;10562;-33.856;151.182;2024-02-23T12:39:01;40.50;;;7.40;;
20802;SDS011;10562;-33.856;151.182;2024-02-23T12:41:33;34.35;;;8.55;;
20802;SDS011;10562;-33.856;151.182;2024-02-23T12:44:04;39.60;;;6.43;;
20802;SDS011;10562;-33.856;151.182;2024-02-23T12:46:35;29.83;;;6.60;;
20802;SDS011;10562;-33.856;151.182;2024-02-23T12:49:06;39.15;;;7.20;;
20802;SDS011;10562;-33.856;151.182;2024-02-23T12:51:37;34.85;;;7.15;;
20802;SDS011;10562;-33.856;151.182;2024-02-23T12:54:08;37.50;;;7.28;;
20802;SDS011;10562;-33.856;151.182;2024-02-23T12:56:41;32.75;;;6.53;;
20802;SDS011;10562;-33.856;151.182;2024-02-23T12:59:12;36.47;;;6.95;;
20802;SDS011;10562;-33.856;151.182;2024-02-23T13:01:42;31.42;;;6.80;;
20802;SDS011;10562;-33.856;151.182;2024-02-23T13:04:13;33.17;;;6.93;;
20802;SDS011;10562;-33.856;151.182;2024-02-23T13:06:44;31.75;;;6.82;;
20802;SDS011;10562;-33.856;151.182;2024-02-23T13:09:15;38.90;;;8.15;;
20802;SDS011;10562;-33.856;151.182;2024-02-23T13:11:48;34.30;;;8.80;;
20802;SDS011;10562;-33.856;151.182;2024-02-23T13:14:19;34.08;;;7.07;;
20802;SDS011;10562;-33.856;151.182;2024-02-23T13:16:50;39.40;;;7.28;;
20802;SDS011;10562;-33.856;151.182;2024-02-23T13:19:21;39.95;;;7.32;;
20802;SDS011;10562;-33.856;151.182;2024-02-23T13:21:51;34.35;;;8.10;;
20802;SDS011;10562;-33.856;151.182;2024-02-23T13:24:23;40.88;;;8.07;;
20802;SDS011;10562;-33.856;151.182;2024-02-23T13:26:55;42.30;;;7.95;;
20802;SDS011;10562;-33.856;151.182;2024-02-23T13:29:26;43.50;;;7.82;;
20802;SDS011;10562;-33.856;151.182;2024-02-23T13:31:57;40.92;;;8.82;;
20802;SDS011;10562;-33.856;151.182;2024-02-23T13:34:27;44.75;;;8.05;;
20802;SDS011;10562;-33.856;151.182;2024-02-23T13:36:58;41.00;;;7.72;;
20802;SDS011;10562;-33.856;151.182;2024-02-23T13:39:29;41.13;;;7.22;;
20802;SDS011;10562;-33.856;151.182;2024-02-23T13:42:01;44.10;;;7.57;;
20802;SDS011;10562;-33.856;151.182;2024-02-23T13:44:34;46.13;;;7.70;;
20802;SDS011;10562;-33.856;151.182;2024-02-23T13:47:05;43.42;;;7.40;;
20802;SDS011;10562;-33.856;151.182;2024-02-23T13:49:36;43.65;;;7.53;;
20802;SDS011;10562;-33.856;151.182;2024-02-23T13:52:07;53.72;;;7.63;;
20802;SDS011;10562;-33.856;151.182;2024-02-23T13:54:37;39.28;;;8.00;;
20802;SDS011;10562;-33.856;151.182;2024-02-23T13:57:11;43.88;;;7.38;;
20802;SDS011;10562;-33.856;151.182;2024-02-23T13:59:41;42.00;;;7.72;;
20802;SDS011;10562;-33.856;151.182;2024-02-23T14:02:12;38.33;;;7.22;;
20802;SDS011;10562;-33.856;151.182;2024-02-23T14:04:44;38.08;;;7.13;;
20802;SDS011;10562;-33.856;151.182;2024-02-23T14:07:15;38.78;;;7.00;;
20802;SDS011;10562;-33.856;151.182;2024-02-23T14:09:46;42.78;;;7.78;;
20802;SDS011;10562;-33.856;151.182;2024-02-23T14:12:19;41.20;;;7.45;;
20802;SDS011;10562;-33.856;151.182;2024-02-23T14:14:50;47.17;;;8.35;;
20802;SDS011;10562;-33.856;151.182;2024-02-23T14:17:20;41.50;;;6.93;;
20802;SDS011;10562;-33.856;151.182;2024-02-23T14:19:54;36.40;;;7.40;;
20802;SDS011;10562;-33.856;151.182;2024-02-23T14:22:25;50.47;;;8.32;;
20802;SDS011;10562;-33.856;151.182;2024-02-23T14:24:56;45.38;;;8.00;;
20802;SDS011;10562;-33.856;151.182;2024-02-23T14:27:28;37.75;;;9.20;;
20802;SDS011;10562;-33.856;151.182;2024-02-23T14:29:59;43.47;;;8.50;;